This is the latest recevied weather packets stored in our database for station/object CT2IRJ-11. If no packets are shown the sender has not sent any weather packets the latest 10 day(s).
| Time | Temp. | Humidity | Pressure | Rain* | Wind** | Luminosity | Snow |
|---|---|---|---|---|---|---|---|
| 1778177610 | 17.22° C | 64% | 1009.5 hPa | 0 mm | - | 67 W/m² | - |
| 1778177310 | 17.22° C | 63% | 1009.8 hPa | 0 mm | - | 69 W/m² | - |
| 1778177009 | 17.22° C | 63% | 1009.8 hPa | 0 mm | - | 72 W/m² | - |
| 1778176709 | 17.78° C | 62% | 1009.8 hPa | 0 mm | - | 74 W/m² | - |
| 1778176410 | 17.78° C | 62% | 1009.5 hPa | 0 mm | - | 79 W/m² | - |
| 1778176109 | 17.78° C | 62% | 1009.8 hPa | 0 mm | - | 85 W/m² | - |
| 1778175810 | 17.78° C | 61% | 1009.5 hPa | 0 mm | - | 86 W/m² | - |
| 1778175509 | 17.78° C | 62% | 1009.5 hPa | 0 mm | - | 93 W/m² | - |
| 1778175210 | 18.33° C | 61% | 1009.5 hPa | 0 mm | - | 133 W/m² | - |
| 1778174909 | 18.33° C | 60% | 1009.5 hPa | 0 mm | - | 173 W/m² | - |
| 1778174611 | 18.89° C | 60% | 1009.5 hPa | 0 mm | - | 177 W/m² | - |
| 1778174309 | 19.44° C | 60% | 1009.5 hPa | 0 mm | - | 182 W/m² | - |
| 1778174010 | 18.89° C | 61% | 1009.5 hPa | 0 mm | - | 199 W/m² | - |
| 1778173710 | 18.89° C | 61% | 1009.5 hPa | 0 mm | - | 134 W/m² | - |
| 1778173410 | 18.89° C | 60% | 1009.5 hPa | 0 mm | - | 121 W/m² | - |
| 1778173110 | 18.89° C | 60% | 1009.1 hPa | 0 mm | - | 122 W/m² | - |
| 1778172810 | 19.44° C | 59% | 1009.1 hPa | 0 mm | - | 122 W/m² | - |
| 1778172510 | 20° C | 58% | 1009.1 hPa | 0 mm | - | 145 W/m² | - |
| 1778172211 | 20° C | 58% | 1008.8 hPa | 0 mm | - | 133 W/m² | - |
| 1778171910 | 20.56° C | 56% | 1009.1 hPa | 0 mm | - | 121 W/m² | - |
| 1778171609 | 20.56° C | 56% | 1008.8 hPa | 0 mm | - | 301 W/m² | - |
| 1778171310 | 21.67° C | 52% | 1009.1 hPa | 0 mm | - | 224 W/m² | - |
| 1778171009 | 20.56° C | 55% | 1008.8 hPa | 0 mm | - | 436 W/m² | - |
| 1778170711 | 20.56° C | 54% | 1008.8 hPa | 0 mm | - | 176 W/m² | - |
| 1778170409 | 20.56° C | 54% | 1008.8 hPa | 0 mm | - | 308 W/m² | - |
* Rain latest hour (hover to see other rain measurements)
** Current wind speed in m/s (hover to see current wind gust speed)